URKCB UKLL-EPRZ
Flight info
| Callsign | URKCB |
|---|---|
| Flight time | 0h 40m |
| Altitude | 4500 |
| Route | 495700N0233223E DCT 495902N0222405E DCT 500110N0221534E DCT 500220N0220408E |
| Aircraft | C208/L-SDE3FGHIRWY/LB1D1 |
Departure
| Time | 2026-04-22 18:58 |
|---|---|
| Airport | Lviv International Airport (UKLL) |
Arrival
| Time | 2026-04-22 19:39 |
|---|---|
| Airport | Rzeszów-Jasionka Airport (EPRZ) |
| Time | Latitude | Longitude | Altitude | Speed | Heading |
|---|---|---|---|---|---|
| 2026-04-22 18:31 | 49.81768 | 23.95073 | 1064 ft | 0 kts | 160° |
| 2026-04-22 18:47 | 49.81752 | 23.95082 | 1061 ft | 8 kts | 159° |
| 2026-04-22 18:47 | 49.81664 | 23.95142 | 1064 ft | 20 kts | 141° |
| 2026-04-22 18:47 | 49.81543 | 23.95328 | 1064 ft | 28 kts | 137° |
| 2026-04-22 18:48 | 49.81423 | 23.95478 | 1064 ft | 17 kts | 157° |
| 2026-04-22 18:48 | 49.81358 | 23.95456 | 1064 ft | 0 kts | 227° |
| 2026-04-22 18:57 | 49.81333 | 23.95417 | 1064 ft | 11 kts | 225° |
| 2026-04-22 18:57 | 49.81366 | 23.95252 | 1063 ft | 35 kts | 315° |
| 2026-04-22 18:58 | 49.81663 | 23.94807 | 1115 ft | 75 kts | 323° |
| 2026-04-22 18:58 | 49.82069 | 23.94296 | 1430 ft | 73 kts | 321° |
| 2026-04-22 18:58 | 49.82381 | 23.93741 | 1814 ft | 66 kts | 277° |
| 2026-04-22 18:58 | 49.82163 | 23.93007 | 2058 ft | 85 kts | 249° |
| 2026-04-22 18:59 | 49.81791 | 23.92190 | 2257 ft | 101 kts | 249° |
| 2026-04-22 18:59 | 49.81450 | 23.91236 | 2427 ft | 101 kts | 256° |
| 2026-04-22 18:59 | 49.81169 | 23.90256 | 2436 ft | 99 kts | 262° |
| 2026-04-22 18:59 | 49.80927 | 23.89246 | 2422 ft | 101 kts | 261° |
| 2026-04-22 19:00 | 49.80677 | 23.88218 | 2378 ft | 101 kts | 265° |
| 2026-04-22 19:00 | 49.80582 | 23.87226 | 2392 ft | 87 kts | 284° |
| 2026-04-22 19:00 | 49.80672 | 23.86295 | 2373 ft | 85 kts | 291° |
| 2026-04-22 19:00 | 49.80895 | 23.85445 | 2449 ft | 89 kts | 300° |
| 2026-04-22 19:01 | 49.81167 | 23.84519 | 2486 ft | 98 kts | 301° |
| 2026-04-22 19:01 | 49.81596 | 23.83675 | 2497 ft | 103 kts | 314° |
| 2026-04-22 19:01 | 49.82093 | 23.82832 | 2496 ft | 108 kts | 314° |
| 2026-04-22 19:01 | 49.82604 | 23.81963 | 2491 ft | 109 kts | 314° |
| 2026-04-22 19:02 | 49.83111 | 23.81093 | 2497 ft | 109 kts | 313° |
| 2026-04-22 19:02 | 49.83623 | 23.80220 | 2493 ft | 109 kts | 314° |
| 2026-04-22 19:02 | 49.84136 | 23.79335 | 2491 ft | 110 kts | 314° |
| 2026-04-22 19:02 | 49.84640 | 23.78468 | 2489 ft | 107 kts | 313° |
| 2026-04-22 19:03 | 49.85078 | 23.77534 | 2489 ft | 107 kts | 307° |
| 2026-04-22 19:03 | 49.85499 | 23.76589 | 2478 ft | 109 kts | 307° |
| 2026-04-22 19:03 | 49.85943 | 23.75634 | 2476 ft | 108 kts | 308° |
| 2026-04-22 19:03 | 49.86383 | 23.74697 | 2476 ft | 106 kts | 308° |
| 2026-04-22 19:04 | 49.86808 | 23.73772 | 2480 ft | 105 kts | 308° |
| 2026-04-22 19:04 | 49.87247 | 23.72794 | 2482 ft | 114 kts | 307° |
| 2026-04-22 19:04 | 49.87703 | 23.71778 | 2490 ft | 115 kts | 307° |
| 2026-04-22 19:04 | 49.88165 | 23.70759 | 2494 ft | 116 kts | 307° |
| 2026-04-22 19:05 | 49.88639 | 23.69728 | 2498 ft | 119 kts | 307° |
| 2026-04-22 19:05 | 49.89084 | 23.68654 | 2494 ft | 117 kts | 304° |
| 2026-04-22 19:05 | 49.89523 | 23.67588 | 2493 ft | 117 kts | 304° |
| 2026-04-22 19:05 | 49.89959 | 23.66521 | 2491 ft | 117 kts | 304° |
| 2026-04-22 19:06 | 49.90393 | 23.65453 | 2495 ft | 117 kts | 304° |
| 2026-04-22 19:06 | 49.90827 | 23.64370 | 2491 ft | 118 kts | 304° |
| 2026-04-22 19:06 | 49.91249 | 23.63286 | 2495 ft | 118 kts | 304° |
| 2026-04-22 19:07 | 49.92135 | 23.61132 | 2492 ft | 118 kts | 306° |
| 2026-04-22 19:07 | 49.92586 | 23.60071 | 2497 ft | 118 kts | 306° |
| 2026-04-22 19:07 | 49.93043 | 23.58992 | 2499 ft | 121 kts | 306° |
| 2026-04-22 19:07 | 49.93501 | 23.57895 | 2499 ft | 121 kts | 306° |
| 2026-04-22 19:08 | 49.93956 | 23.56787 | 2491 ft | 121 kts | 306° |
| 2026-04-22 19:08 | 49.94403 | 23.55699 | 2490 ft | 119 kts | 306° |
| 2026-04-22 19:08 | 49.94847 | 23.54620 | 2493 ft | 119 kts | 306° |
| 2026-04-22 19:08 | 49.95287 | 23.53528 | 2488 ft | 120 kts | 301° |
| 2026-04-22 19:09 | 49.95434 | 23.52227 | 2481 ft | 125 kts | 281° |
| 2026-04-22 19:09 | 49.95480 | 23.50888 | 2491 ft | 125 kts | 278° |
| 2026-04-22 19:09 | 49.95464 | 23.49984 | 2494 ft | 127 kts | 276° |
| 2026-04-22 19:09 | 49.95429 | 23.48142 | 2493 ft | 127 kts | 277° |
| 2026-04-22 19:10 | 49.95403 | 23.46775 | 2490 ft | 126 kts | 277° |
| 2026-04-22 19:10 | 49.95377 | 23.45411 | 2490 ft | 126 kts | 277° |
| 2026-04-22 19:10 | 49.95358 | 23.44055 | 2493 ft | 126 kts | 277° |
| 2026-04-22 19:10 | 49.95342 | 23.42678 | 2494 ft | 128 kts | 277° |
| 2026-04-22 19:11 | 49.95334 | 23.41307 | 2494 ft | 125 kts | 278° |
| 2026-04-22 19:11 | 49.95369 | 23.39983 | 2494 ft | 124 kts | 279° |
| 2026-04-22 19:11 | 49.95412 | 23.38648 | 2494 ft | 124 kts | 280° |
| 2026-04-22 19:11 | 49.95452 | 23.37310 | 2493 ft | 124 kts | 280° |
| 2026-04-22 19:12 | 49.95487 | 23.35973 | 2493 ft | 125 kts | 279° |
| 2026-04-22 19:12 | 49.95516 | 23.34632 | 2487 ft | 124 kts | 280° |
| 2026-04-22 19:12 | 49.95547 | 23.33282 | 2493 ft | 125 kts | 279° |
| 2026-04-22 19:12 | 49.95574 | 23.32370 | 2496 ft | 126 kts | 280° |
| 2026-04-22 19:13 | 49.95610 | 23.31035 | 2496 ft | 124 kts | 280° |
| 2026-04-22 19:13 | 49.95651 | 23.29713 | 2493 ft | 122 kts | 280° |
| 2026-04-22 19:13 | 49.95696 | 23.28396 | 2493 ft | 122 kts | 280° |
| 2026-04-22 19:13 | 49.95735 | 23.27065 | 2496 ft | 125 kts | 279° |
| 2026-04-22 19:14 | 49.95771 | 23.25719 | 2494 ft | 124 kts | 280° |
| 2026-04-22 19:14 | 49.95807 | 23.24386 | 2492 ft | 123 kts | 280° |
| 2026-04-22 19:14 | 49.95845 | 23.23056 | 2491 ft | 123 kts | 280° |
| 2026-04-22 19:14 | 49.95882 | 23.21727 | 2490 ft | 123 kts | 280° |
| 2026-04-22 19:15 | 49.95921 | 23.20400 | 2489 ft | 123 kts | 280° |
| 2026-04-22 19:15 | 49.95962 | 23.19058 | 2494 ft | 126 kts | 280° |
| 2026-04-22 19:15 | 49.96003 | 23.17703 | 2490 ft | 125 kts | 279° |
| 2026-04-22 19:15 | 49.96041 | 23.16361 | 2489 ft | 124 kts | 280° |
| 2026-04-22 19:16 | 49.96075 | 23.15020 | 2495 ft | 125 kts | 279° |
| 2026-04-22 19:16 | 49.96119 | 23.13675 | 2492 ft | 124 kts | 280° |
| 2026-04-22 19:16 | 49.96161 | 23.12342 | 2492 ft | 123 kts | 280° |
| 2026-04-22 19:16 | 49.96190 | 23.11001 | 2497 ft | 125 kts | 280° |
| 2026-04-22 19:17 | 49.96225 | 23.09647 | 2492 ft | 125 kts | 280° |
| 2026-04-22 19:17 | 49.96262 | 23.08307 | 2501 ft | 125 kts | 280° |
| 2026-04-22 19:17 | 49.96309 | 23.06964 | 2502 ft | 127 kts | 280° |
| 2026-04-22 19:17 | 49.96346 | 23.05574 | 2497 ft | 128 kts | 279° |
| 2026-04-22 19:18 | 49.96389 | 23.04206 | 2495 ft | 126 kts | 280° |
| 2026-04-22 19:18 | 49.96432 | 23.02846 | 2501 ft | 127 kts | 279° |
| 2026-04-22 19:18 | 49.96472 | 23.01474 | 2499 ft | 127 kts | 279° |
| 2026-04-22 19:18 | 49.96516 | 23.00114 | 2493 ft | 127 kts | 280° |
| 2026-04-22 19:19 | 49.96550 | 22.98755 | 2495 ft | 125 kts | 279° |
| 2026-04-22 19:19 | 49.96585 | 22.97406 | 2495 ft | 124 kts | 279° |
| 2026-04-22 19:19 | 49.96629 | 22.96075 | 2495 ft | 123 kts | 280° |
| 2026-04-22 19:19 | 49.96668 | 22.94740 | 2494 ft | 124 kts | 280° |
| 2026-04-22 19:20 | 49.96710 | 22.93400 | 2503 ft | 125 kts | 279° |
| 2026-04-22 19:20 | 49.96761 | 22.92031 | 2512 ft | 128 kts | 280° |
| 2026-04-22 19:20 | 49.96802 | 22.90639 | 2513 ft | 130 kts | 279° |
| 2026-04-22 19:20 | 49.96836 | 22.89243 | 2513 ft | 129 kts | 280° |
| 2026-04-22 19:21 | 49.96877 | 22.87854 | 2511 ft | 129 kts | 279° |
| 2026-04-22 19:21 | 49.96925 | 22.86465 | 2506 ft | 128 kts | 280° |
| 2026-04-22 19:21 | 49.96975 | 22.85102 | 2506 ft | 128 kts | 279° |
| 2026-04-22 19:21 | 49.97025 | 22.83698 | 2503 ft | 128 kts | 280° |
| 2026-04-22 19:22 | 49.97072 | 22.82321 | 2499 ft | 127 kts | 279° |
| 2026-04-22 19:22 | 49.97117 | 22.80945 | 2502 ft | 127 kts | 280° |
| 2026-04-22 19:22 | 49.97155 | 22.79582 | 2503 ft | 129 kts | 279° |
| 2026-04-22 19:22 | 49.97187 | 22.78188 | 2507 ft | 129 kts | 280° |
| 2026-04-22 19:23 | 49.97221 | 22.76803 | 2510 ft | 129 kts | 280° |
| 2026-04-22 19:23 | 49.97253 | 22.75404 | 2508 ft | 129 kts | 280° |
| 2026-04-22 19:23 | 49.97282 | 22.74018 | 2512 ft | 129 kts | 279° |
| 2026-04-22 19:23 | 49.97330 | 22.72616 | 2504 ft | 130 kts | 281° |
| 2026-04-22 19:24 | 49.97386 | 22.71227 | 2505 ft | 129 kts | 279° |
| 2026-04-22 19:24 | 49.97427 | 22.69842 | 2505 ft | 127 kts | 279° |
| 2026-04-22 19:24 | 49.97471 | 22.68476 | 2505 ft | 127 kts | 279° |
| 2026-04-22 19:24 | 49.97515 | 22.67094 | 2505 ft | 129 kts | 280° |
| 2026-04-22 19:25 | 49.97549 | 22.65714 | 2508 ft | 126 kts | 280° |
| 2026-04-22 19:25 | 49.97582 | 22.64338 | 2511 ft | 129 kts | 279° |
| 2026-04-22 19:25 | 49.97623 | 22.62945 | 2512 ft | 130 kts | 280° |
| 2026-04-22 19:25 | 49.97657 | 22.61538 | 2510 ft | 130 kts | 279° |
| 2026-04-22 19:26 | 49.97687 | 22.60147 | 2504 ft | 128 kts | 280° |
| 2026-04-22 19:26 | 49.97722 | 22.58758 | 2407 ft | 131 kts | 279° |
| 2026-04-22 19:26 | 49.97787 | 22.57327 | 2280 ft | 134 kts | 283° |
| 2026-04-22 19:26 | 49.97907 | 22.55894 | 2156 ft | 134 kts | 283° |
| 2026-04-22 19:27 | 49.98003 | 22.54444 | 2032 ft | 136 kts | 280° |
| 2026-04-22 19:27 | 49.98055 | 22.53008 | 2016 ft | 131 kts | 279° |
| 2026-04-22 19:27 | 49.98095 | 22.51603 | 2010 ft | 129 kts | 279° |
| 2026-04-22 19:27 | 49.98134 | 22.50221 | 2011 ft | 128 kts | 280° |
| 2026-04-22 19:28 | 49.98170 | 22.48841 | 2008 ft | 128 kts | 279° |
| 2026-04-22 19:28 | 49.98205 | 22.47454 | 2007 ft | 128 kts | 279° |
| 2026-04-22 19:28 | 49.98239 | 22.46073 | 2006 ft | 127 kts | 278° |
| 2026-04-22 19:28 | 49.98273 | 22.44704 | 2007 ft | 127 kts | 279° |
| 2026-04-22 19:29 | 49.98315 | 22.43335 | 2015 ft | 127 kts | 279° |
| 2026-04-22 19:29 | 49.98346 | 22.41958 | 2013 ft | 128 kts | 278° |
| 2026-04-22 19:29 | 49.98377 | 22.40584 | 2011 ft | 126 kts | 279° |
| 2026-04-22 19:29 | 49.98585 | 22.39306 | 2004 ft | 121 kts | 297° |
| 2026-04-22 19:30 | 49.98805 | 22.38508 | 2002 ft | 122 kts | 296° |
| 2026-04-22 19:30 | 49.99210 | 22.36886 | 2008 ft | 121 kts | 295° |
| 2026-04-22 19:30 | 49.99514 | 22.35664 | 2008 ft | 121 kts | 294° |
| 2026-04-22 19:30 | 49.99821 | 22.34446 | 2009 ft | 124 kts | 295° |
| 2026-04-22 19:31 | 50.00135 | 22.33183 | 2009 ft | 124 kts | 295° |
| 2026-04-22 19:31 | 50.00442 | 22.31956 | 2009 ft | 124 kts | 295° |
| 2026-04-22 19:31 | 50.00758 | 22.30713 | 2011 ft | 124 kts | 295° |
| 2026-04-22 19:31 | 50.01071 | 22.29456 | 2009 ft | 125 kts | 294° |
| 2026-04-22 19:32 | 50.01385 | 22.28197 | 2011 ft | 125 kts | 295° |
| 2026-04-22 19:32 | 50.01693 | 22.26949 | 2011 ft | 123 kts | 295° |
| 2026-04-22 19:32 | 50.01984 | 22.25703 | 2010 ft | 124 kts | 288° |
| 2026-04-22 19:32 | 50.02114 | 22.24360 | 2009 ft | 126 kts | 283° |
| 2026-04-22 19:33 | 50.02244 | 22.23021 | 2009 ft | 125 kts | 283° |
| 2026-04-22 19:33 | 50.02449 | 22.21742 | 1997 ft | 121 kts | 306° |
| 2026-04-22 19:33 | 50.03104 | 22.20935 | 1999 ft | 121 kts | 325° |
| 2026-04-22 19:33 | 50.03798 | 22.20200 | 1996 ft | 120 kts | 323° |
| 2026-04-22 19:34 | 50.04503 | 22.19498 | 2000 ft | 121 kts | 328° |
| 2026-04-22 19:34 | 50.05239 | 22.18850 | 2000 ft | 122 kts | 328° |
| 2026-04-22 19:34 | 50.05978 | 22.18185 | 2002 ft | 123 kts | 327° |
| 2026-04-22 19:34 | 50.06718 | 22.17518 | 1996 ft | 122 kts | 328° |
| 2026-04-22 19:35 | 50.07447 | 22.16855 | 1995 ft | 122 kts | 327° |
| 2026-04-22 19:35 | 50.08184 | 22.16202 | 1996 ft | 122 kts | 327° |
| 2026-04-22 19:35 | 50.08671 | 22.15760 | 1999 ft | 122 kts | 328° |
| 2026-04-22 19:35 | 50.09654 | 22.14884 | 2025 ft | 120 kts | 323° |
| 2026-04-22 19:36 | 50.10296 | 22.14070 | 1937 ft | 118 kts | 316° |
| 2026-04-22 19:36 | 50.10772 | 22.13062 | 1784 ft | 117 kts | 295° |
| 2026-04-22 19:36 | 50.10903 | 22.11754 | 1531 ft | 127 kts | 274° |
| 2026-04-22 19:36 | 50.10890 | 22.10484 | 1419 ft | 108 kts | 270° |
| 2026-04-22 19:37 | 50.10922 | 22.09349 | 1254 ft | 103 kts | 271° |
| 2026-04-22 19:37 | 50.10919 | 22.08265 | 1125 ft | 97 kts | 270° |
| 2026-04-22 19:37 | 50.10926 | 22.07280 | 1035 ft | 83 kts | 271° |
| 2026-04-22 19:37 | 50.10936 | 22.06425 | 945 ft | 77 kts | 271° |
| 2026-04-22 19:38 | 50.10943 | 22.05610 | 853 ft | 74 kts | 271° |
| 2026-04-22 19:38 | 50.10954 | 22.04821 | 764 ft | 72 kts | 270° |
| 2026-04-22 19:38 | 50.10966 | 22.04041 | 689 ft | 70 kts | 271° |
| 2026-04-22 19:38 | 50.10976 | 22.03322 | 690 ft | 61 kts | 271° |
| 2026-04-22 19:39 | 50.10987 | 22.02747 | 694 ft | 40 kts | 271° |
| 2026-04-22 19:39 | 50.10988 | 22.02432 | 694 ft | 27 kts | 270° |
| 2026-04-22 19:39 | 50.11064 | 22.02298 | 694 ft | 20 kts | 1° |
| 2026-04-22 19:39 | 50.11115 | 22.02299 | 691 ft | 0 kts | 359° |
| 2026-04-22 19:40 | 50.11120 | 22.02299 | 691 ft | 5 kts | 358° |
| 2026-04-22 19:40 | 50.11156 | 22.02195 | 690 ft | 19 kts | 268° |
| 2026-04-22 19:40 | 50.11160 | 22.01956 | 693 ft | 25 kts | 270° |
| 2026-04-22 19:40 | 50.11163 | 22.01655 | 698 ft | 29 kts | 272° |
| 2026-04-22 19:41 | 50.11168 | 22.01367 | 702 ft | 22 kts | 271° |
| 2026-04-22 19:41 | 50.11189 | 22.01221 | 699 ft | 8 kts | 334° |
| 2026-04-22 19:41 | 50.11252 | 22.01271 | 699 ft | 15 kts | 12° |
| 2026-04-22 19:41 | 50.11268 | 22.01263 | 697 ft | 0 kts | 268° |